Time;durP1;ratioP1;P1;durP2;ratioP2;P2;SDS_P1;SDS_P2;PMS_P1;PMS_P2;Temp;Humidity;BMP_temperature;BMP_pressure;BME280_temperature;BME280_humidity;BME280_pressure;Samples;Min_cycle;Max_cycle;Signal;HPM_P1;HPM_P2
2023/09/21 00:02:24;;;;;;;11.53;4.60;;;;;;;;;;5028613;28;20049;-58
2023/09/21 00:04:51;;;;;;;6.95;4.28;;;;;;;;;;5025111;28;20291;-57
2023/09/21 00:07:18;;;;;;;10.30;4.13;;;;;;;;;;5044816;28;20037;-57
2023/09/21 00:09:46;;;;;;;9.57;4.38;;;;;;;;;;5048047;28;20037;-57
2023/09/21 00:12:11;;;;;;;12.05;5.10;;;;;;;;;;5048690;28;20041;-57
2023/09/21 00:14:37;;;;;;;10.13;4.17;;;;;;;;;;5046602;28;20036;-58
2023/09/21 00:17:03;;;;;;;10.70;4.30;;;;;;;;;;5048230;28;20670;-57
2023/09/21 00:19:28;;;;;;;7.55;4.47;;;;;;;;;;5048986;28;20037;-57
2023/09/21 00:21:55;;;;;;;11.18;4.38;;;;;;;;;;5048776;28;20043;-58
2023/09/21 00:24:22;;;;;;;8.45;4.55;;;;;;;;;;5048976;28;20063;-57
2023/09/21 00:26:50;;;;;;;7.82;4.28;;;;;;;;;;5045863;28;20037;-57
2023/09/21 00:29:16;;;;;;;8.30;4.28;;;;;;;;;;5048552;28;20095;-58
2023/09/21 00:31:41;;;;;;;10.07;4.35;;;;;;;;;;5046494;28;20099;-58
2023/09/21 00:34:08;;;;;;;11.33;4.63;;;;;;;;;;5036777;28;20441;-57
2023/09/21 00:36:35;;;;;;;9.50;4.30;;;;;;;;;;5046782;28;20613;-56
2023/09/21 00:39:00;;;;;;;9.55;4.75;;;;;;;;;;5048832;28;20512;-57
2023/09/21 00:41:26;;;;;;;12.25;4.55;;;;;;;;;;5048212;28;20080;-57
2023/09/21 00:43:51;;;;;;;9.10;5.07;;;;;;;;;;5048723;28;20513;-58
2023/09/21 00:46:16;;;;;;;12.35;5.88;;;;;;;;;;5047956;28;20279;-58
2023/09/21 00:48:42;;;;;;;13.77;5.63;;;;;;;;;;5045715;28;20036;-58
2023/09/21 00:51:09;;;;;;;11.63;5.35;;;;;;;;;;5041340;28;20358;-58
2023/09/21 00:53:34;;;;;;;10.10;5.80;;;;;;;;;;5035310;28;20493;-58
2023/09/21 00:56:11;;;;;;;12.02;5.95;;;;;;;;;;5047469;28;20086;-58
2023/09/21 00:58:36;;;;;;;9.68;5.65;;;;;;;;;;5048114;28;20044;-57
2023/09/21 01:01:02;;;;;;;10.95;5.82;;;;;;;;;;5048192;28;20037;-58
2023/09/21 01:03:28;;;;;;;12.82;6.03;;;;;;;;;;5048321;28;20041;-58
2023/09/21 01:05:53;;;;;;;9.80;6.38;;;;;;;;;;5041811;28;20665;-58
2023/09/21 01:08:21;;;;;;;10.43;6.07;;;;;;;;;;5046006;28;20037;-58
2023/09/21 01:10:49;;;;;;;14.98;6.57;;;;;;;;;;5048099;28;20041;-58
2023/09/21 01:13:15;;;;;;;9.80;6.07;;;;;;;;;;5048078;28;20099;-59
2023/09/21 01:15:47;;;;;;;15.70;7.22;;;;;;;;;;5046141;28;20495;-58
2023/09/21 01:18:16;;;;;;;11.95;6.88;;;;;;;;;;5047481;28;20039;-58
2023/09/21 01:20:42;;;;;;;16.73;6.95;;;;;;;;;;5046092;28;20037;-58
2023/09/21 01:23:19;;;;;;;12.07;6.88;;;;;;;;;;5031511;28;20129;-58
2023/09/21 01:25:50;;;;;;;14.23;6.93;;;;;;;;;;5048186;28;20099;-58
2023/09/21 01:28:22;;;;;;;12.07;6.15;;;;;;;;;;5046274;28;20060;-58
2023/09/21 01:30:48;;;;;;;11.90;6.60;;;;;;;;;;5047592;28;20037;-58
2023/09/21 01:33:15;;;;;;;11.45;6.55;;;;;;;;;;5046984;28;20426;-58
2023/09/21 01:35:43;;;;;;;13.18;6.75;;;;;;;;;;5047130;28;20401;-58
2023/09/21 01:38:08;;;;;;;14.57;6.97;;;;;;;;;;5047515;28;20112;-57
2023/09/21 01:40:34;;;;;;;11.32;6.38;;;;;;;;;;5045159;28;21591;-58
2023/09/21 01:43:03;;;;;;;10.70;6.72;;;;;;;;;;5046049;28;20017;-59
2023/09/21 01:45:29;;;;;;;15.13;6.47;;;;;;;;;;5036792;28;20099;-58
2023/09/21 01:47:54;;;;;;;12.70;6.53;;;;;;;;;;5047323;28;20029;-57
2023/09/21 01:50:21;;;;;;;10.35;6.20;;;;;;;;;;5047094;28;20048;-58
2023/09/21 01:52:46;;;;;;;10.60;6.05;;;;;;;;;;5042615;28;20049;-57
2023/09/21 01:55:11;;;;;;;11.23;6.32;;;;;;;;;;5036024;28;20045;-58
2023/09/21 01:57:37;;;;;;;10.65;6.40;;;;;;;;;;5037500;28;20500;-58
2023/09/21 02:00:22;;;;;;;13.80;7.00;;;;;;;;;;5047350;28;20025;-58
2023/09/21 02:02:48;;;;;;;11.27;6.47;;;;;;;;;;5046976;28;20041;-58
2023/09/21 02:05:13;;;;;;;12.15;6.60;;;;;;;;;;5046745;28;20040;-58
2023/09/21 02:07:40;;;;;;;12.02;6.68;;;;;;;;;;5046477;28;20436;-58
2023/09/21 02:10:08;;;;;;;14.88;6.93;;;;;;;;;;5047183;28;20497;-58
2023/09/21 02:12:38;;;;;;;9.50;6.20;;;;;;;;;;5044683;28;20133;-57
2023/09/21 02:15:04;;;;;;;15.27;6.50;;;;;;;;;;5045892;28;20078;-57
2023/09/21 02:17:29;;;;;;;11.63;6.32;;;;;;;;;;5046257;28;20833;-58
2023/09/21 02:19:55;;;;;;;13.80;6.88;;;;;;;;;;5047135;28;20139;-58
2023/09/21 02:22:20;;;;;;;13.13;6.80;;;;;;;;;;5046047;28;20117;-58
2023/09/21 02:24:46;;;;;;;11.27;5.83;;;;;;;;;;5046767;28;20290;-58
2023/09/21 02:27:11;;;;;;;12.38;6.55;;;;;;;;;;5046248;28;20340;-57
2023/09/21 02:29:40;;;;;;;11.27;6.27;;;;;;;;;;5044620;28;20040;-59
2023/09/21 02:32:06;;;;;;;12.82;6.07;;;;;;;;;;5044954;28;20300;-57
2023/09/21 02:34:31;;;;;;;12.27;6.15;;;;;;;;;;5045004;28;20421;-57
2023/09/21 02:36:56;;;;;;;13.37;6.50;;;;;;;;;;5044742;28;20998;-57
2023/09/21 02:39:21;;;;;;;11.77;5.85;;;;;;;;;;5046695;28;20284;-57
2023/09/21 02:41:47;;;;;;;12.30;5.82;;;;;;;;;;5028279;28;20147;-58
2023/09/21 02:44:13;;;;;;;12.40;5.85;;;;;;;;;;5045995;28;20032;-57
2023/09/21 02:46:39;;;;;;;10.32;6.43;;;;;;;;;;5041421;28;20505;-57
2023/09/21 02:49:06;;;;;;;11.35;6.57;;;;;;;;;;5040083;28;20033;-58
2023/09/21 02:51:32;;;;;;;12.20;5.78;;;;;;;;;;5043676;28;20056;-57
2023/09/21 02:53:59;;;;;;;12.80;5.88;;;;;;;;;;5046162;28;20025;-57
2023/09/21 02:56:25;;;;;;;11.85;5.95;;;;;;;;;;5045673;28;20052;-58
2023/09/21 02:58:52;;;;;;;9.80;5.72;;;;;;;;;;5044492;28;20033;-57
2023/09/21 03:01:20;;;;;;;9.90;6.30;;;;;;;;;;5046031;28;20428;-58
2023/09/21 03:03:45;;;;;;;11.68;6.40;;;;;;;;;;5044145;28;20056;-57
2023/09/21 03:06:12;;;;;;;13.50;6.70;;;;;;;;;;5045636;28;20501;-58
2023/09/21 03:08:38;;;;;;;14.38;6.18;;;;;;;;;;5031520;28;20490;-57
2023/09/21 03:11:08;;;;;;;12.68;6.40;;;;;;;;;;5025926;28;20049;-58
2023/09/21 03:13:34;;;;;;;11.70;6.03;;;;;;;;;;5025962;28;20037;-57
2023/09/21 03:16:00;;;;;;;9.75;5.95;;;;;;;;;;5041878;28;20532;-57
2023/09/21 03:18:27;;;;;;;11.73;6.27;;;;;;;;;;5045282;28;20033;-57
2023/09/21 03:20:53;;;;;;;8.95;5.85;;;;;;;;;;5042577;28;20626;-58
2023/09/21 03:23:19;;;;;;;11.52;6.10;;;;;;;;;;5045593;28;20079;-58
2023/09/21 03:25:45;;;;;;;11.25;5.93;;;;;;;;;;5042142;28;20052;-57
2023/09/21 03:28:14;;;;;;;11.82;6.22;;;;;;;;;;5044335;28;20094;-59
2023/09/21 03:30:40;;;;;;;12.03;6.50;;;;;;;;;;5045805;28;20048;-58
2023/09/21 03:33:05;;;;;;;11.17;6.20;;;;;;;;;;5045176;28;20032;-58
2023/09/21 03:35:31;;;;;;;11.30;5.82;;;;;;;;;;5043801;28;20296;-58
2023/09/21 03:37:57;;;;;;;10.18;5.80;;;;;;;;;;5042841;28;20479;-58
2023/09/21 03:40:25;;;;;;;9.02;6.05;;;;;;;;;;5043580;28;20494;-58
2023/09/21 03:42:51;;;;;;;11.85;5.75;;;;;;;;;;5045277;28;20044;-58
2023/09/21 03:45:20;;;;;;;10.52;5.30;;;;;;;;;;5044963;28;20041;-58
2023/09/21 03:47:46;;;;;;;10.50;5.78;;;;;;;;;;5044929;28;20420;-57
2023/09/21 03:50:12;;;;;;;10.05;5.38;;;;;;;;;;5046246;28;20509;-58
2023/09/21 03:52:41;;;;;;;11.00;6.00;;;;;;;;;;5043217;28;20084;-58
2023/09/21 03:55:08;;;;;;;10.13;5.60;;;;;;;;;;5043108;28;20864;-57
2023/09/21 03:57:33;;;;;;;9.73;5.78;;;;;;;;;;5043386;28;20029;-58
2023/09/21 03:59:59;;;;;;;10.48;5.65;;;;;;;;;;5045234;28;20048;-57
2023/09/21 04:02:25;;;;;;;9.73;5.22;;;;;;;;;;5032383;28;20397;-57
2023/09/21 04:04:50;;;;;;;8.07;4.80;;;;;;;;;;5031506;28;20104;-58
2023/09/21 04:07:17;;;;;;;10.23;5.80;;;;;;;;;;5044803;28;20056;-58
2023/09/21 04:09:43;;;;;;;10.95;5.63;;;;;;;;;;5043221;28;20137;-58
2023/09/21 04:12:08;;;;;;;10.38;5.70;;;;;;;;;;5043435;28;20580;-58
2023/09/21 04:14:33;;;;;;;10.50;5.87;;;;;;;;;;5044950;28;20036;-58
2023/09/21 04:16:58;;;;;;;9.17;5.50;;;;;;;;;;5044807;28;20659;-58
2023/09/21 04:19:24;;;;;;;10.02;5.63;;;;;;;;;;5044666;28;20287;-58
2023/09/21 04:21:50;;;;;;;9.80;5.47;;;;;;;;;;5044646;28;20033;-57
2023/09/21 04:24:16;;;;;;;9.80;5.53;;;;;;;;;;5044678;28;20044;-58
2023/09/21 04:26:41;;;;;;;12.35;5.95;;;;;;;;;;5042901;28;20041;-58
2023/09/21 04:29:08;;;;;;;9.27;5.07;;;;;;;;;;5044777;28;20152;-58
2023/09/21 04:31:34;;;;;;;11.02;5.68;;;;;;;;;;5044646;28;20049;-63
2023/09/21 04:34:00;;;;;;;10.90;5.28;;;;;;;;;;5045103;28;20033;-59
2023/09/21 04:36:25;;;;;;;9.50;5.50;;;;;;;;;;5041529;28;20041;-59
2023/09/21 04:38:51;;;;;;;8.75;5.45;;;;;;;;;;5043143;28;20799;-58
2023/09/21 04:41:16;;;;;;;12.80;5.88;;;;;;;;;;5038417;28;20044;-58
2023/09/21 04:43:41;;;;;;;11.30;5.88;;;;;;;;;;5034698;28;20501;-57
2023/09/21 04:46:07;;;;;;;10.77;6.03;;;;;;;;;;5044712;28;20478;-57
2023/09/21 04:48:33;;;;;;;13.48;5.47;;;;;;;;;;5043168;28;20036;-57
2023/09/21 04:50:59;;;;;;;14.70;6.35;;;;;;;;;;5044606;28;20054;-57
2023/09/21 04:53:24;;;;;;;11.00;5.88;;;;;;;;;;5044301;28;20041;-57
2023/09/21 04:55:49;;;;;;;8.43;5.32;;;;;;;;;;5044870;28;20143;-60
2023/09/21 04:58:16;;;;;;;11.23;5.90;;;;;;;;;;5048639;28;20041;-58
2023/09/21 05:00:41;;;;;;;9.98;5.32;;;;;;;;;;5042141;28;20320;-57
2023/09/21 05:03:06;;;;;;;9.00;5.77;;;;;;;;;;5045133;28;20095;-58
2023/09/21 05:05:32;;;;;;;8.90;5.60;;;;;;;;;;5043551;28;20391;-59
2023/09/21 05:07:58;;;;;;;11.03;5.53;;;;;;;;;;5048086;28;20854;-58
2023/09/21 05:10:23;;;;;;;9.60;4.85;;;;;;;;;;5043582;28;20299;-57
2023/09/21 05:12:49;;;;;;;8.88;5.18;;;;;;;;;;5044423;28;20528;-58
2023/09/21 05:15:15;;;;;;;9.80;5.15;;;;;;;;;;5044579;28;20032;-58
2023/09/21 05:17:40;;;;;;;10.95;6.28;;;;;;;;;;5044984;28;20458;-57
2023/09/21 05:20:09;;;;;;;12.13;6.57;;;;;;;;;;5045075;28;20044;-57
2023/09/21 05:22:34;;;;;;;12.40;6.15;;;;;;;;;;5041818;28;20482;-57
2023/09/21 05:25:00;;;;;;;9.43;6.03;;;;;;;;;;5042335;28;20041;-57
2023/09/21 05:27:29;;;;;;;12.82;6.00;;;;;;;;;;5030564;28;20055;-59
2023/09/21 05:29:54;;;;;;;12.30;6.22;;;;;;;;;;5039412;28;20086;-58
2023/09/21 05:32:19;;;;;;;10.48;6.45;;;;;;;;;;5031230;28;20037;-59
2023/09/21 05:34:47;;;;;;;13.50;7.38;;;;;;;;;;5032604;28;20032;-58
2023/09/21 05:37:12;;;;;;;16.80;7.30;;;;;;;;;;5032015;28;20021;-59
2023/09/21 05:39:38;;;;;;;13.17;7.10;;;;;;;;;;5033230;28;20075;-58
2023/09/21 05:42:04;;;;;;;10.90;6.78;;;;;;;;;;5033080;28;20834;-59
2023/09/21 05:44:30;;;;;;;13.98;6.85;;;;;;;;;;5033371;28;20021;-59
2023/09/21 05:46:55;;;;;;;14.10;7.53;;;;;;;;;;5031374;28;20029;-59
2023/09/21 05:49:23;;;;;;;15.10;7.03;;;;;;;;;;5032944;28;20025;-59
2023/09/21 05:51:49;;;;;;;15.10;6.60;;;;;;;;;;5032515;28;20069;-60
2023/09/21 05:54:16;;;;;;;13.75;7.15;;;;;;;;;;5030313;28;20575;-59
2023/09/21 05:56:41;;;;;;;15.18;7.15;;;;;;;;;;5031600;28;20103;-59
2023/09/21 05:59:07;;;;;;;15.77;7.15;;;;;;;;;;5031726;28;20021;-59
2023/09/21 06:01:32;;;;;;;13.82;7.55;;;;;;;;;;5032587;28;20132;-59
2023/09/21 06:03:59;;;;;;;14.70;7.45;;;;;;;;;;5031874;28;20459;-59
2023/09/21 06:06:28;;;;;;;13.40;7.15;;;;;;;;;;5032929;28;20033;-59
2023/09/21 06:08:54;;;;;;;12.80;7.70;;;;;;;;;;5029805;28;20033;-60
2023/09/21 06:11:19;;;;;;;12.73;7.28;;;;;;;;;;5032903;28;20044;-57
2023/09/21 06:13:44;;;;;;;15.37;7.87;;;;;;;;;;5031830;28;20464;-58
2023/09/21 06:16:10;;;;;;;16.03;6.87;;;;;;;;;;5036934;28;20393;-59
2023/09/21 06:18:35;;;;;;;15.68;7.47;;;;;;;;;;5031782;28;20264;-58
2023/09/21 06:21:02;;;;;;;15.63;7.20;;;;;;;;;;5031856;28;20033;-57
2023/09/21 06:23:27;;;;;;;16.52;7.68;;;;;;;;;;5032837;28;21853;-61
2023/09/21 06:25:54;;;;;;;14.48;8.13;;;;;;;;;;5030832;28;20500;-58
2023/09/21 06:28:21;;;;;;;15.95;8.15;;;;;;;;;;5030747;28;20033;-58
2023/09/21 06:30:47;;;;;;;15.32;8.00;;;;;;;;;;5030625;28;20064;-57
2023/09/21 06:33:13;;;;;;;15.35;7.68;;;;;;;;;;5032083;28;20106;-57
2023/09/21 06:35:38;;;;;;;16.75;7.85;;;;;;;;;;5032833;28;20033;-58
2023/09/21 06:38:04;;;;;;;14.80;8.05;;;;;;;;;;5031253;28;20033;-58
2023/09/21 06:40:30;;;;;;;14.65;7.88;;;;;;;;;;5029179;28;20049;-58
2023/09/21 06:42:55;;;;;;;17.40;7.85;;;;;;;;;;5046218;28;20033;-58
2023/09/21 06:45:21;;;;;;;13.77;7.53;;;;;;;;;;5023467;28;20539;-58
2023/09/21 06:47:47;;;;;;;11.93;7.00;;;;;;;;;;5030209;28;20307;-58
2023/09/21 06:50:12;;;;;;;11.73;7.25;;;;;;;;;;5031360;28;20041;-58
2023/09/21 06:52:38;;;;;;;15.95;7.40;;;;;;;;;;5032221;28;20040;-59
2023/09/21 06:55:04;;;;;;;14.80;7.10;;;;;;;;;;5029072;28;20551;-60
2023/09/21 06:57:34;;;;;;;16.15;6.97;;;;;;;;;;5034323;28;20029;-58
2023/09/21 07:00:00;;;;;;;16.27;7.40;;;;;;;;;;5017712;28;20442;-58
2023/09/21 07:02:26;;;;;;;15.52;6.85;;;;;;;;;;5030391;28;20124;-59
2023/09/21 07:04:52;;;;;;;15.90;7.07;;;;;;;;;;5032368;28;20040;-59
2023/09/21 07:07:18;;;;;;;13.90;5.97;;;;;;;;;;5031463;28;20037;-60
2023/09/21 07:09:44;;;;;;;10.85;6.47;;;;;;;;;;5035501;28;20434;-59
2023/09/21 07:12:11;;;;;;;16.23;6.75;;;;;;;;;;5035202;28;20533;-59
2023/09/21 07:14:36;;;;;;;12.10;6.22;;;;;;;;;;5032220;28;20405;-60
2023/09/21 07:17:01;;;;;;;12.38;6.53;;;;;;;;;;5032737;28;20045;-59
2023/09/21 07:19:28;;;;;;;12.77;6.65;;;;;;;;;;5028336;28;20051;-58
2023/09/21 07:21:54;;;;;;;14.77;7.35;;;;;;;;;;5032168;28;20033;-58
2023/09/21 07:24:19;;;;;;;13.27;7.00;;;;;;;;;;5031077;28;20037;-58
2023/09/21 07:26:45;;;;;;;11.17;7.10;;;;;;;;;;5030621;28;20289;-58
2023/09/21 07:29:11;;;;;;;13.95;7.07;;;;;;;;;;5032414;28;20295;-59
2023/09/21 07:31:37;;;;;;;16.10;7.25;;;;;;;;;;5031756;28;20473;-59
2023/09/21 07:34:03;;;;;;;14.70;7.15;;;;;;;;;;5033975;28;20083;-59
2023/09/21 07:36:28;;;;;;;15.85;7.05;;;;;;;;;;5031635;28;20056;-58
2023/09/21 07:38:55;;;;;;;15.95;6.60;;;;;;;;;;5032778;28;20129;-60
2023/09/21 07:41:20;;;;;;;11.82;6.72;;;;;;;;;;5031173;28;20045;-58
2023/09/21 07:43:45;;;;;;;12.52;6.22;;;;;;;;;;5032572;28;20037;-59
2023/09/21 07:46:11;;;;;;;12.77;6.72;;;;;;;;;;5036138;28;20045;-59
2023/09/21 07:48:36;;;;;;;13.07;6.22;;;;;;;;;;5031069;28;20636;-59
2023/09/21 07:51:05;;;;;;;11.85;6.07;;;;;;;;;;5031171;28;20278;-59
2023/09/21 07:53:30;;;;;;;11.45;6.15;;;;;;;;;;5032740;28;20086;-59
2023/09/21 07:56:04;;;;;;;12.45;5.82;;;;;;;;;;5030272;28;20037;-58
2023/09/21 07:58:29;;;;;;;11.73;5.85;;;;;;;;;;5030225;28;20179;-59
2023/09/21 08:00:55;;;;;;;16.80;6.50;;;;;;;;;;5031016;28;20037;-59
2023/09/21 08:03:21;;;;;;;13.60;6.03;;;;;;;;;;5029735;28;20547;-59
2023/09/21 08:05:47;;;;;;;11.80;6.03;;;;;;;;;;5030905;28;20049;-58
2023/09/21 08:08:15;;;;;;;13.63;6.40;;;;;;;;;;5034840;28;20035;-59
2023/09/21 08:10:41;;;;;;;12.98;5.68;;;;;;;;;;5043486;28;20292;-58
2023/09/21 08:13:06;;;;;;;11.98;5.88;;;;;;;;;;5043711;28;20446;-59
2023/09/21 08:15:32;;;;;;;14.57;6.43;;;;;;;;;;5043603;28;20029;-59
2023/09/21 08:17:58;;;;;;;15.35;6.18;;;;;;;;;;5044972;28;20279;-59
2023/09/21 08:20:24;;;;;;;11.18;5.90;;;;;;;;;;5042163;28;20478;-59
2023/09/21 08:22:49;;;;;;;11.52;5.68;;;;;;;;;;5044180;28;20044;-59
2023/09/21 08:25:14;;;;;;;12.90;6.07;;;;;;;;;;5045083;28;20167;-59
2023/09/21 08:27:40;;;;;;;10.80;5.72;;;;;;;;;;5044114;28;20041;-59
2023/09/21 08:30:08;;;;;;;13.98;6.20;;;;;;;;;;5045600;28;20071;-60
2023/09/21 08:32:33;;;;;;;11.63;6.45;;;;;;;;;;5047294;28;20037;-58
2023/09/21 08:34:59;;;;;;;12.57;6.57;;;;;;;;;;5044837;28;20064;-57
2023/09/21 08:37:24;;;;;;;14.13;5.78;;;;;;;;;;5041754;28;20128;-57
2023/09/21 08:39:49;;;;;;;9.73;5.72;;;;;;;;;;5049378;28;20091;-58
2023/09/21 08:42:15;;;;;;;12.63;5.77;;;;;;;;;;5048282;28;20420;-58
2023/09/21 08:44:40;;;;;;;13.18;6.50;;;;;;;;;;5043569;28;20448;-56
2023/09/21 08:47:06;;;;;;;12.75;6.53;;;;;;;;;;5048161;28;20553;-58
2023/09/21 08:49:33;;;;;;;12.23;6.75;;;;;;;;;;5035218;28;20052;-60
2023/09/21 08:51:58;;;;;;;10.85;6.28;;;;;;;;;;5044327;28;20429;-58
2023/09/21 08:54:24;;;;;;;12.32;6.07;;;;;;;;;;5043932;28;20033;-59
2023/09/21 08:56:53;;;;;;;12.35;6.88;;;;;;;;;;5041108;28;20038;-58
2023/09/21 08:59:19;;;;;;;14.20;6.63;;;;;;;;;;5040238;28;20275;-59
2023/09/21 09:01:45;;;;;;;10.50;6.70;;;;;;;;;;5043903;28;20080;-58
2023/09/21 09:04:10;;;;;;;13.90;6.47;;;;;;;;;;5045943;28;20053;-58
2023/09/21 09:06:35;;;;;;;14.00;7.03;;;;;;;;;;5048408;28;20290;-59
2023/09/21 09:09:00;;;;;;;14.87;7.00;;;;;;;;;;5040557;28;20371;-58
2023/09/21 09:11:34;;;;;;;14.83;6.57;;;;;;;;;;5040576;28;20371;-58
2023/09/21 09:14:01;;;;;;;12.75;6.57;;;;;;;;;;5047266;28;20492;-59
2023/09/21 09:16:29;;;;;;;12.68;6.47;;;;;;;;;;5050093;28;20036;-58
2023/09/21 09:18:57;;;;;;;11.00;6.25;;;;;;;;;;5047410;28;20075;-58
2023/09/21 09:21:23;;;;;;;12.40;5.90;;;;;;;;;;5047647;28;20284;-60
2023/09/21 09:23:48;;;;;;;12.68;6.43;;;;;;;;;;5045845;28;20689;-58
2023/09/21 09:26:13;;;;;;;10.50;5.80;;;;;;;;;;5028100;28;20052;-58
2023/09/21 09:28:38;;;;;;;13.25;5.43;;;;;;;;;;5035939;28;20279;-57
2023/09/21 09:31:07;;;;;;;10.82;5.55;;;;;;;;;;5047617;28;20127;-58
2023/09/21 09:33:33;;;;;;;11.68;6.43;;;;;;;;;;5046749;28;20508;-58
2023/09/21 09:35:58;;;;;;;12.75;6.88;;;;;;;;;;5035466;28;20053;-58
2023/09/21 09:38:23;;;;;;;11.40;6.20;;;;;;;;;;5032825;28;20505;-58
2023/09/21 09:40:49;;;;;;;13.60;6.25;;;;;;;;;;5047051;28;20524;-58
2023/09/21 09:43:14;;;;;;;12.15;6.15;;;;;;;;;;5048119;28;20063;-58
2023/09/21 09:45:39;;;;;;;11.07;6.40;;;;;;;;;;5047656;28;20037;-57
2023/09/21 09:48:11;;;;;;;10.60;5.97;;;;;;;;;;5029131;28;20088;-58
2023/09/21 09:50:36;;;;;;;10.05;6.40;;;;;;;;;;5045435;28;20334;-58
2023/09/21 09:53:03;;;;;;;12.23;6.53;;;;;;;;;;5046444;28;20508;-59
2023/09/21 09:55:32;;;;;;;13.23;6.05;;;;;;;;;;5046965;28;20044;-58
2023/09/21 09:57:59;;;;;;;;;;;;;;;;;;5032267;28;20029;-57
2023/09/21 10:00:27;;;;;;;12.38;6.40;;;;;;;;;;5027433;28;19917;-58
2023/09/21 10:02:53;;;;;;;13.63;6.28;;;;;;;;;;5039862;28;20182;-59
2023/09/21 10:05:19;;;;;;;10.68;6.53;;;;;;;;;;5046613;28;20029;-58
2023/09/21 10:07:45;;;;;;;11.07;5.93;;;;;;;;;;5047108;28;20060;-56
2023/09/21 10:10:15;;;;;;;11.13;6.22;;;;;;;;;;5046537;28;20041;-58
2023/09/21 10:12:40;;;;;;;13.13;6.05;;;;;;;;;;5046572;28;20436;-59
2023/09/21 10:15:07;;;;;;;10.50;6.15;;;;;;;;;;5047634;28;20135;-59
2023/09/21 10:17:33;;;;;;;11.55;5.43;;;;;;;;;;5047216;28;20508;-58
2023/09/21 10:20:24;;;;;;;12.15;5.82;;;;;;;;;;5045286;28;20033;-59
2023/09/21 10:22:51;;;;;;;10.70;5.40;;;;;;;;;;5043689;28;20099;-59
2023/09/21 10:25:20;;;;;;;10.23;5.18;;;;;;;;;;5047684;28;20036;-58
2023/09/21 10:27:49;;;;;;;9.27;5.03;;;;;;;;;;5045729;28;20021;-58
2023/09/21 10:30:15;;;;;;;8.65;5.38;;;;;;;;;;5040166;28;20060;-58
2023/09/21 10:32:44;;;;;;;8.95;5.03;;;;;;;;;;5033737;28;20130;-58
2023/09/21 10:35:18;;;;;;;8.13;4.82;;;;;;;;;;5045679;28;20044;-58
2023/09/21 10:37:43;;;;;;;9.15;4.75;;;;;;;;;;5046909;28;20033;-59
2023/09/21 10:40:09;;;;;;;9.47;5.30;;;;;;;;;;5045652;28;20434;-58
2023/09/21 10:42:37;;;;;;;12.70;5.30;;;;;;;;;;5040887;28;20275;-58
2023/09/21 10:45:04;;;;;;;12.40;4.78;;;;;;;;;;5044911;28;20369;-57
2023/09/21 10:47:48;;;;;;;11.77;5.30;;;;;;;;;;5026256;28;20052;-60
2023/09/21 10:50:14;;;;;;;9.43;5.03;;;;;;;;;;5040747;28;20033;-58
2023/09/21 10:52:39;;;;;;;9.90;5.15;;;;;;;;;;5045986;28;20041;-59
2023/09/21 10:55:05;;;;;;;7.68;4.45;;;;;;;;;;5045937;28;20506;-59
2023/09/21 10:57:31;;;;;;;12.45;5.45;;;;;;;;;;5044855;28;20037;-58
2023/09/21 10:59:59;;;;;;;10.10;5.03;;;;;;;;;;5044856;28;20124;-58
2023/09/21 11:02:25;;;;;;;9.82;4.55;;;;;;;;;;5046928;28;20051;-58
2023/09/21 11:04:51;;;;;;;8.68;4.45;;;;;;;;;;5034303;28;20641;-58
2023/09/21 11:07:17;;;;;;;7.10;4.47;;;;;;;;;;5035379;28;20029;-58
2023/09/21 11:09:43;;;;;;;7.68;4.30;;;;;;;;;;5036746;28;20044;-58
2023/09/21 11:12:12;;;;;;;8.82;4.13;;;;;;;;;;5033200;28;20051;-57
2023/09/21 11:14:39;;;;;;;8.40;4.30;;;;;;;;;;5036879;28;20040;-59
2023/09/21 11:17:04;;;;;;;8.50;4.57;;;;;;;;;;5033619;28;20171;-59
2023/09/21 11:19:30;;;;;;;9.37;4.90;;;;;;;;;;5037180;28;20080;-58
2023/09/21 11:21:55;;;;;;;8.18;4.40;;;;;;;;;;5038270;28;20300;-59
2023/09/21 11:24:20;;;;;;;7.60;4.43;;;;;;;;;;5038196;28;20030;-58
2023/09/21 11:26:46;;;;;;;9.60;4.60;;;;;;;;;;5032376;28;20423;-58
2023/09/21 11:29:13;;;;;;;9.13;4.38;;;;;;;;;;5032452;28;20288;-57
2023/09/21 11:31:38;;;;;;;8.10;4.13;;;;;;;;;;5036872;28;20140;-58
2023/09/21 11:34:05;;;;;;;9.53;4.97;;;;;;;;;;5036687;28;20123;-58
2023/09/21 11:36:30;;;;;;;5.50;4.40;;;;;;;;;;5034488;28;20755;-59
2023/09/21 11:38:56;;;;;;;7.65;4.13;;;;;;;;;;5030735;28;20029;-58
2023/09/21 11:41:21;;;;;;;6.30;3.95;;;;;;;;;;5031849;28;20044;-58
2023/09/21 11:43:49;;;;;;;8.35;4.22;;;;;;;;;;5031961;28;20113;-59
2023/09/21 11:46:14;;;;;;;7.82;3.53;;;;;;;;;;5031881;28;20554;-60
2023/09/21 11:48:39;;;;;;;6.40;4.13;;;;;;;;;;5039440;28;20029;-58
2023/09/21 11:51:05;;;;;;;8.10;3.92;;;;;;;;;;5036949;28;20739;-58
2023/09/21 11:53:30;;;;;;;5.97;3.85;;;;;;;;;;5036577;28;20056;-58
2023/09/21 11:55:55;;;;;;;8.00;4.50;;;;;;;;;;5034390;28;20469;-58
2023/09/21 11:58:22;;;;;;;9.33;4.60;;;;;;;;;;5033873;28;20037;-59
2023/09/21 12:03:13;;;;;;;7.70;3.90;;;;;;;;;;5035914;28;20128;-59
2023/09/21 12:05:42;;;;;;;5.82;4.43;;;;;;;;;;5036688;28;20287;-60
2023/09/21 12:08:10;;;;;;;7.93;3.70;;;;;;;;;;5039975;28;20037;-59
2023/09/21 12:10:35;;;;;;;6.90;4.30;;;;;;;;;;5037340;28;20064;-59
2023/09/21 12:13:01;;;;;;;6.97;4.18;;;;;;;;;;5036845;28;20056;-60
2023/09/21 12:15:28;;;;;;;8.10;4.03;;;;;;;;;;5036808;28;20175;-59
2023/09/21 12:17:53;;;;;;;7.87;3.93;;;;;;;;;;5037981;28;20033;-58
2023/09/21 12:20:20;;;;;;;6.97;4.23;;;;;;;;;;5039907;28;20288;-58
2023/09/21 12:22:45;;;;;;;6.75;3.65;;;;;;;;;;5037071;28;20296;-59
2023/09/21 12:25:11;;;;;;;6.97;4.43;;;;;;;;;;5040866;28;20403;-57
2023/09/21 12:27:37;;;;;;;5.68;4.13;;;;;;;;;;5039850;28;20072;-59
2023/09/21 12:30:04;;;;;;;8.10;4.72;;;;;;;;;;5037020;28;20032;-58
2023/09/21 12:32:29;;;;;;;8.13;4.20;;;;;;;;;;5038530;28;20113;-59
2023/09/21 12:34:56;;;;;;;7.23;3.90;;;;;;;;;;5041043;28;20042;-59
2023/09/21 12:37:22;;;;;;;8.00;4.53;;;;;;;;;;5037382;28;20309;-58
2023/09/21 12:39:47;;;;;;;6.88;4.07;;;;;;;;;;5035197;28;20505;-58
2023/09/21 12:42:14;;;;;;;8.38;4.45;;;;;;;;;;5034391;28;20037;-60
2023/09/21 12:44:40;;;;;;;7.20;4.28;;;;;;;;;;5041973;28;20042;-59
2023/09/21 12:47:09;;;;;;;7.65;4.78;;;;;;;;;;5035457;28;20033;-60
2023/09/21 12:49:35;;;;;;;6.05;4.32;;;;;;;;;;5035412;28;20056;-59
2023/09/21 12:52:01;;;;;;;8.13;4.22;;;;;;;;;;5036019;28;20046;-58
2023/09/21 12:54:26;;;;;;;6.67;4.07;;;;;;;;;;5037629;28;20085;-59
2023/09/21 12:56:51;;;;;;;8.75;4.55;;;;;;;;;;5038308;28;20784;-61
2023/09/21 12:59:16;;;;;;;6.13;4.50;;;;;;;;;;5034436;28;20400;-60
2023/09/21 13:01:42;;;;;;;7.68;4.40;;;;;;;;;;5033908;28;20346;-60
2023/09/21 13:04:07;;;;;;;9.43;4.33;;;;;;;;;;5034499;28;20421;-60
2023/09/21 13:06:33;;;;;;;7.65;4.60;;;;;;;;;;5035999;28;20278;-60
2023/09/21 13:08:59;;;;;;;7.03;4.60;;;;;;;;;;5037332;28;20537;-60
2023/09/21 13:11:24;;;;;;;7.10;4.57;;;;;;;;;;5037097;28;20088;-60
2023/09/21 13:13:50;;;;;;;7.13;4.40;;;;;;;;;;5034748;28;20052;-60
2023/09/21 13:16:15;;;;;;;8.30;4.37;;;;;;;;;;5036976;28;20102;-59
2023/09/21 13:18:41;;;;;;;7.25;4.88;;;;;;;;;;5035762;28;20831;-59
2023/09/21 13:21:08;;;;;;;8.77;4.88;;;;;;;;;;5040016;28;20088;-59
2023/09/21 13:23:35;;;;;;;9.77;4.38;;;;;;;;;;5038361;28;20497;-59
2023/09/21 13:26:01;;;;;;;7.70;4.78;;;;;;;;;;5033981;28;20570;-59
2023/09/21 13:28:26;;;;;;;7.50;5.40;;;;;;;;;;5033435;28;20477;-60
2023/09/21 13:30:52;;;;;;;8.93;4.88;;;;;;;;;;5032200;28;20047;-59
2023/09/21 13:33:18;;;;;;;6.60;4.65;;;;;;;;;;5033834;28;20623;-59
2023/09/21 13:35:44;;;;;;;9.57;5.22;;;;;;;;;;5033365;28;20144;-59
2023/09/21 13:38:10;;;;;;;6.90;4.63;;;;;;;;;;5034073;28;20095;-57
2023/09/21 13:40:36;;;;;;;8.20;4.82;;;;;;;;;;5034205;28;20021;-58
2023/09/21 13:43:01;;;;;;;7.32;4.72;;;;;;;;;;5033432;28;20029;-58
2023/09/21 13:45:26;;;;;;;9.52;4.88;;;;;;;;;;5036051;28;20380;-59
2023/09/21 13:47:52;;;;;;;8.85;4.68;;;;;;;;;;5034911;28;20017;-58
2023/09/21 13:50:18;;;;;;;8.90;4.90;;;;;;;;;;5038438;28;20017;-58
2023/09/21 13:52:43;;;;;;;9.77;4.95;;;;;;;;;;5032755;28;20038;-58
2023/09/21 13:55:09;;;;;;;7.85;4.60;;;;;;;;;;5033852;28;20445;-59
2023/09/21 13:57:35;;;;;;;8.45;4.72;;;;;;;;;;5033360;28;20513;-60
2023/09/21 14:00:00;;;;;;;7.03;4.43;;;;;;;;;;5033716;28;20031;-59
2023/09/21 14:02:27;;;;;;;7.00;4.57;;;;;;;;;;5033033;28;20049;-60
2023/09/21 14:04:52;;;;;;;7.65;4.53;;;;;;;;;;5034062;28;20024;-60
2023/09/21 14:07:18;;;;;;;8.02;4.85;;;;;;;;;;5033053;28;20025;-60
2023/09/21 14:09:43;;;;;;;6.80;4.30;;;;;;;;;;5030715;28;20107;-59
2023/09/21 14:12:08;;;;;;;8.13;4.63;;;;;;;;;;5031540;28;20037;-57
2023/09/21 14:14:34;;;;;;;9.43;4.75;;;;;;;;;;5031467;28;20033;-58
2023/09/21 14:17:00;;;;;;;8.23;4.60;;;;;;;;;;5030678;28;20041;-58
2023/09/21 14:19:25;;;;;;;8.35;4.43;;;;;;;;;;5033469;28;20044;-58
2023/09/21 14:21:52;;;;;;;10.90;4.72;;;;;;;;;;5034489;28;20021;-58
2023/09/21 14:24:17;;;;;;;7.47;4.40;;;;;;;;;;5032140;28;20573;-59
2023/09/21 14:26:42;;;;;;;6.85;4.35;;;;;;;;;;5032548;28;20033;-58
2023/09/21 14:29:08;;;;;;;7.83;4.47;;;;;;;;;;5031742;28;20033;-58
2023/09/21 14:31:33;;;;;;;7.90;4.63;;;;;;;;;;5038021;28;20294;-58
2023/09/21 14:33:58;;;;;;;8.13;4.22;;;;;;;;;;5031170;28;20783;-58